Portada
METAR-TAF:

METAR-TAF

Aeroports :

Antananarivo, Madagascar

latitud: 18-48S, longitud: 047-29E, altitud: 1279 m

Observació

L'informe es va fer fa 17 minuts, a les 09:30 UTC
Vent 12 kt del Est
Temperatura 26°C
Humitat 39%
Pressió 1021 hPa
Visibilitat 10 km o més
Escasses núvols a una alçada de 2000 ft

METAR: FMMI 240930Z 09012KT 9999 FEW020 26/11 Q1021 NOSIG

Hora: 12:47 (09:47 UTC)

Pronòstic

L'informe es va fer fa 4 hores i 47 minuts, a les 05:00 UTC
Pronòstic vàlid del 24 a les 06 UTC al 25 a les 12 UTC
Vent 9 kt del Est/Sud-Est
Visibilitat 10 km o més
Escasses núvols a una alçada de 1700 ft
Núvols disperses a una alçada de 2300 ft
Probabilitat 30%
l' 24 a les 14 UTC al 24 a les 20 UTC
Visibilitat: 4500 m
fum

TAF: FMMI 240500Z 2406/2512 12009KT 9999 FEW017 SCT023 PROB30 2414/2420 4500 FU

Observacions i pronòstics meteorològics de més de 4000 aeroports (METAR i TAF).

Les estacions disponibles són els punts grocs i vermells al mapa.

Posi el ratolí al punt desitjat per veure el nom de l'estació.

Feu clic per veure les observacions i els pronòstics meteorològics.

Per canviar el mapa: feu clic els botons verds amb una creu de color negre per apropar; al botó verd amb un guió per allunyar la imatge; o en les fletxes verdes per a mapes adjacents.


METAR-TAF: